Time;durP1;ratioP1;P1;durP2;ratioP2;P2;SDS_P1;SDS_P2;PMS_P1;PMS_P2;Temp;Humidity;BMP_temperature;BMP_pressure;BME280_temperature;BME280_humidity;BME280_pressure;Samples;Min_cycle;Max_cycle;Signal;HPM_P1;HPM_P2
2023/07/11 00:00:14;;;;;;;4.83;2.50;;;;;;;18.43;100.00;102563.13;4935964;29;20944;-73
2023/07/11 00:02:47;;;;;;;4.37;2.30;;;;;;;18.20;100.00;102520.09;4920195;29;21196;-73
2023/07/11 00:05:14;;;;;;;4.00;2.50;;;;;;;17.67;100.00;102492.84;4920798;29;20449;-73
2023/07/11 00:07:41;;;;;;;5.80;2.50;;;;;;;18.30;100.00;102550.38;4921459;29;20440;-74
2023/07/11 00:10:08;;;;;;;5.47;2.80;;;;;;;18.50;100.00;102574.81;4923199;29;20518;-73
2023/07/11 00:12:34;;;;;;;8.80;3.60;;;;;;;17.72;100.00;102433.34;4924396;29;20467;-74
2023/07/11 00:14:59;;;;;;;5.17;3.07;;;;;;;18.43;100.00;102584.03;4927446;29;20497;-73
2023/07/11 00:17:25;;;;;;;3.90;2.70;;;;;;;18.47;100.00;102577.13;4925012;29;20195;-74
2023/07/11 00:19:57;;;;;;;6.60;2.70;;;;;;;18.62;100.00;102587.78;4918848;29;20227;-74
2023/07/11 00:22:26;;;;;;;6.70;2.47;;;;;;;18.55;100.00;102576.94;4923085;29;20216;-75
2023/07/11 00:24:51;;;;;;;5.10;2.93;;;;;;;18.58;100.00;102590.09;4925016;29;20498;-74
2023/07/11 00:27:19;;;;;;;5.83;2.57;;;;;;;17.59;100.00;102441.50;4924037;29;20459;-74
2023/07/11 00:29:44;;;;;;;4.50;2.67;;;;;;;18.05;100.00;102514.88;4922792;29;20216;-75
2023/07/11 00:32:11;;;;;;;5.40;2.13;;;;;;;18.17;100.00;102531.38;4920930;29;20458;-74
2023/07/11 00:34:36;;;;;;;4.60;2.70;;;;;;;17.71;100.00;102466.16;4923692;29;20651;-74
2023/07/11 00:37:02;;;;;;;5.30;2.57;;;;;;;17.61;100.00;102437.50;4921251;29;20522;-76
2023/07/11 00:39:30;;;;;;;5.83;2.47;;;;;;;17.91;100.00;102458.88;4923121;29;20239;-73
2023/07/11 00:41:56;;;;;;;4.93;2.20;;;;;;;18.24;100.00;102518.63;4917895;29;20501;-73
2023/07/11 00:44:22;;;;;;;3.60;1.93;;;;;;;18.58;100.00;102559.38;4923467;29;21027;-76
2023/07/11 00:46:50;;;;;;;3.37;2.10;;;;;;;18.55;100.00;102573.38;4920633;29;20214;-74
2023/07/11 00:49:18;;;;;;;3.97;2.17;;;;;;;18.56;100.00;102570.44;4921128;29;20478;-73
2023/07/11 00:51:46;;;;;;;4.10;2.47;;;;;;;18.20;100.00;102547.25;4920230;29;20455;-73
2023/07/11 00:54:16;;;;;;;5.30;2.47;;;;;;;18.03;100.00;102499.81;4918287;29;20483;-73
2023/07/11 00:56:45;;;;;;;4.47;2.47;;;;;;;18.21;100.00;102557.06;4918404;29;20542;-73
2023/07/11 00:59:12;;;;;;;5.20;2.50;;;;;;;17.47;100.00;102438.53;4919718;29;20447;-75
2023/07/11 01:01:38;;;;;;;5.20;2.40;;;;;;;18.24;100.00;102564.78;4935572;29;20937;-74
2023/07/11 01:04:07;;;;;;;3.37;2.33;;;;;;;18.32;100.00;102558.31;4915696;29;20471;-74
2023/07/11 01:06:33;;;;;;;4.67;2.20;;;;;;;18.22;100.00;102555.16;4919370;29;20195;-73
2023/07/11 01:09:01;;;;;;;7.20;2.97;;;;;;;18.21;100.00;102556.22;4916821;29;20776;-75
2023/07/11 01:11:30;;;;;;;3.13;2.37;;;;;;;18.36;100.00;102554.13;4921045;29;20667;-76
2023/07/11 01:13:56;;;;;;;5.30;2.03;;;;;;;17.56;100.00;102441.88;4923621;29;20550;-75
2023/07/11 01:16:22;;;;;;;3.77;2.07;;;;;;;18.35;100.00;102538.06;4920081;29;20946;-76
2023/07/11 01:18:48;;;;;;;3.90;2.10;;;;;;;17.98;100.00;102568.31;4919196;29;21181;-75
2023/07/11 01:21:18;;;;;;;2.70;1.80;;;;;;;17.90;100.00;102557.63;4928005;29;20187;-77
2023/07/11 01:23:45;;;;;;;9.87;2.50;;;;;;;17.96;100.00;102583.97;4921728;29;20470;-75
2023/07/11 01:26:11;;;;;;;5.77;2.80;;;;;;;17.79;100.00;102544.66;4924442;29;20935;-75
2023/07/11 01:28:41;;;;;;;2.50;1.93;;;;;;;17.95;100.00;102547.00;4922561;29;20485;-75
2023/07/11 01:31:07;;;;;;;2.40;2.00;;;;;;;18.29;100.00;102567.72;4925652;29;20482;-75
2023/07/11 01:33:33;;;;;;;3.70;2.20;;;;;;;18.14;100.00;102593.38;4924521;29;20481;-75
2023/07/11 01:35:59;;;;;;;5.10;1.80;;;;;;;18.06;100.00;102583.56;4925220;29;20458;-74
2023/07/11 01:38:25;;;;;;;5.97;3.07;;;;;;;18.18;100.00;102575.66;4923897;29;20443;-75
2023/07/11 01:40:51;;;;;;;4.37;1.83;;;;;;;18.28;100.00;102585.06;4923489;29;20447;-75
2023/07/11 01:43:17;;;;;;;3.40;1.63;;;;;;;17.13;100.00;102426.78;4922999;29;20208;-75
2023/07/11 01:45:43;;;;;;;3.30;1.77;;;;;;;17.75;100.00;102514.38;4924067;29;20940;-74
2023/07/11 01:48:09;;;;;;;4.87;1.80;;;;;;;18.15;100.00;102579.63;4921081;29;20451;-75
2023/07/11 01:50:34;;;;;;;4.67;1.90;;;;;;;18.11;100.00;102572.94;4923957;29;20703;-75
2023/07/11 01:53:00;;;;;;;5.33;2.30;;;;;;;18.15;100.00;102578.78;4921626;29;20207;-75
2023/07/11 01:55:25;;;;;;;4.70;1.50;;;;;;;17.26;100.00;102431.41;4922898;29;20194;-75
2023/07/11 01:57:51;;;;;;;4.83;1.87;;;;;;;17.42;100.00;102456.50;4922548;29;20219;-75
2023/07/11 02:00:17;;;;;;;3.87;1.93;;;;;;;18.22;100.00;102579.63;4919456;29;20180;-75
2023/07/11 02:02:42;;;;;;;4.20;2.07;;;;;;;18.07;100.00;102587.97;4923093;29;20237;-75
2023/07/11 02:05:08;;;;;;;6.10;1.63;;;;;;;18.10;100.00;102571.25;4924460;29;20675;-75
2023/07/11 02:07:33;;;;;;;4.40;2.00;;;;;;;18.07;100.00;102577.94;4922421;29;20198;-76
2023/07/11 02:09:58;;;;;;;4.13;1.77;;;;;;;18.00;100.00;102562.69;4924341;29;20207;-75
2023/07/11 02:12:24;;;;;;;5.80;1.80;;;;;;;17.90;100.00;102567.66;4923364;29;20707;-76
2023/07/11 02:14:49;;;;;;;4.83;1.70;;;;;;;17.99;100.00;102578.16;4926584;29;20189;-75
2023/07/11 02:17:15;;;;;;;5.57;2.07;;;;;;;17.38;100.00;102483.16;4929969;29;20608;-75
2023/07/11 02:19:41;;;;;;;7.03;1.80;;;;;;;18.18;100.00;102578.38;4929882;29;20262;-75
2023/07/11 02:22:07;;;;;;;4.50;1.60;;;;;;;18.12;100.00;102600.94;4929226;29;20183;-75
2023/07/11 02:24:33;;;;;;;4.27;1.70;;;;;;;17.74;100.00;102572.41;4928699;29;20443;-75
2023/07/11 02:26:58;;;;;;;2.80;1.73;;;;;;;17.81;100.00;102554.28;4930514;29;20562;-76
2023/07/11 02:29:24;;;;;;;3.07;1.60;;;;;;;18.03;100.00;102590.25;4929777;29;20699;-75
2023/07/11 02:31:49;;;;;;;2.80;1.40;;;;;;;17.58;100.00;102532.06;4929536;29;20188;-76
2023/07/11 02:34:15;;;;;;;5.00;1.57;;;;;;;17.23;100.00;102486.03;4929373;29;20208;-75
2023/07/11 02:36:40;;;;;;;6.70;2.03;;;;;;;17.74;100.00;102561.56;4929574;29;20192;-74
2023/07/11 02:39:06;;;;;;;6.50;1.73;;;;;;;17.36;100.00;102486.09;4929378;29;20194;-76
2023/07/11 02:41:31;;;;;;;4.27;1.80;;;;;;;17.76;100.00;102569.47;4924220;29;20199;-75
2023/07/11 02:43:58;;;;;;;8.37;2.37;;;;;;;17.64;100.00;102555.66;4928961;29;20214;-75
2023/07/11 02:46:23;;;;;;;6.60;2.17;;;;;;;17.99;100.00;102582.72;4959511;28;20242;-75
2023/07/11 02:48:49;;;;;;;6.70;1.80;;;;;;;17.85;100.00;102576.44;4929436;29;20443;-74
2023/07/11 02:51:14;;;;;;;4.20;1.80;;;;;;;17.83;100.00;102573.09;4925280;29;20203;-75
2023/07/11 02:53:40;;;;;;;4.07;1.93;;;;;;;17.63;100.00;102535.00;4930090;29;20227;-75
2023/07/11 02:56:05;;;;;;;3.70;1.47;;;;;;;17.25;100.00;102485.84;4929900;29;20203;-75
2023/07/11 02:58:31;;;;;;;3.20;1.80;;;;;;;17.65;100.00;102535.66;4930707;29;20681;-75
2023/07/11 03:00:59;;;;;;;3.73;1.73;;;;;;;17.67;100.00;102486.59;4926358;29;20292;-76
2023/07/11 03:03:24;;;;;;;4.83;1.80;;;;;;;17.67;100.00;102473.84;4925754;29;20259;-75
2023/07/11 03:05:51;;;;;;;5.23;1.73;;;;;;;17.30;100.00;102410.97;4926713;29;20991;-75
2023/07/11 03:08:17;;;;;;;3.23;1.77;;;;;;;17.66;100.00;102504.75;4927449;29;20191;-75
2023/07/11 03:10:42;;;;;;;5.13;1.90;;;;;;;17.68;100.00;102478.25;4927464;29;20463;-75
2023/07/11 03:13:09;;;;;;;5.70;1.90;;;;;;;17.90;100.00;102530.50;4928021;29;20216;-75
2023/07/11 03:15:35;;;;;;;4.93;2.00;;;;;;;17.80;100.00;102543.63;4929054;29;20183;-75
2023/07/11 03:18:01;;;;;;;10.90;3.00;;;;;;;17.83;100.00;102527.78;4924938;29;20881;-77
2023/07/11 03:20:26;;;;;;;4.57;2.07;;;;;;;17.77;100.00;102484.31;4927677;29;20463;-76
2023/07/11 03:22:52;;;;;;;7.73;1.97;;;;;;;17.79;100.00;102525.66;4917023;29;20262;-75
2023/07/11 03:25:17;;;;;;;4.30;1.97;;;;;;;17.91;100.00;102531.34;4922250;29;20197;-75
2023/07/11 03:27:43;;;;;;;4.43;1.70;;;;;;;17.71;100.00;102526.69;4923908;29;20187;-76
2023/07/11 03:30:08;;;;;;;3.10;1.70;;;;;;;17.78;100.00;102524.84;4921575;29;20688;-75
2023/07/11 03:32:34;;;;;;;3.80;1.83;;;;;;;17.83;100.00;102527.78;4915062;29;20740;-74
2023/07/11 03:34:59;;;;;;;4.47;1.87;;;;;;;17.96;100.00;102524.22;4923823;29;20220;-75
2023/07/11 03:37:25;;;;;;;4.50;2.13;;;;;;;18.01;100.00;102521.72;4922261;29;21083;-75
2023/07/11 03:39:50;;;;;;;4.77;1.90;;;;;;;17.85;100.00;102514.00;4922637;29;21022;-75
2023/07/11 03:42:16;;;;;;;3.57;1.50;;;;;;;17.65;100.00;102488.66;4920345;29;20767;-75
2023/07/11 03:44:42;;;;;;;4.27;1.60;;;;;;;17.79;100.00;102499.38;4924152;29;20188;-75
2023/07/11 03:47:07;;;;;;;3.10;1.60;;;;;;;16.98;100.00;102342.09;4925000;29;20285;-75
2023/07/11 03:49:33;;;;;;;3.57;1.40;;;;;;;17.81;100.00;102483.72;4925271;29;20471;-75
2023/07/11 03:51:59;;;;;;;4.10;1.47;;;;;;;17.91;100.00;102487.91;4925220;29;21167;-75
2023/07/11 03:54:24;;;;;;;3.87;2.13;;;;;;;17.12;100.00;102389.03;4922173;29;21088;-74
2023/07/11 03:56:53;;;;;;;3.03;1.50;;;;;;;17.77;100.00;102492.47;4922537;29;20227;-75
2023/07/11 03:59:19;;;;;;;2.37;1.63;;;;;;;17.09;100.00;102367.75;4923595;29;20188;-75
2023/07/11 04:01:45;;;;;;;2.40;1.60;;;;;;;17.55;100.00;102440.22;4917700;29;20451;-76
2023/07/11 04:04:10;;;;;;;4.93;2.10;;;;;;;17.73;100.00;102456.72;4926002;29;20526;-78
2023/07/11 04:06:36;;;;;;;2.87;1.53;;;;;;;18.05;100.00;102495.84;4921501;29;20196;-75
2023/07/11 04:09:01;;;;;;;3.27;1.40;;;;;;;17.56;100.00;102452.75;4921642;29;20191;-75
2023/07/11 04:11:27;;;;;;;2.43;1.30;;;;;;;18.07;100.00;102499.19;4925690;29;20258;-75
2023/07/11 04:13:52;;;;;;;5.10;1.87;;;;;;;17.91;100.00;102496.91;4917502;29;20560;-75
2023/07/11 04:16:18;;;;;;;2.90;1.43;;;;;;;17.75;100.00;102479.06;4927512;29;20192;-76
2023/07/11 04:18:43;;;;;;;4.57;1.80;;;;;;;17.75;100.00;102461.97;4927697;29;20196;-75
2023/07/11 04:21:09;;;;;;;3.80;1.50;;;;;;;17.39;100.00;102423.31;4923960;29;20270;-76
2023/07/11 04:23:34;;;;;;;5.07;2.03;;;;;;;17.95;100.00;102462.00;4928290;29;20273;-74
2023/07/11 04:25:59;;;;;;;4.00;1.50;;;;;;;18.20;100.00;102514.66;4926613;29;20238;-77
2023/07/11 04:28:25;;;;;;;4.33;1.70;;;;;;;17.73;100.00;102478.44;4928033;29;20221;-75
2023/07/11 04:30:50;;;;;;;2.90;1.27;;;;;;;17.74;100.00;102479.31;4922069;29;20591;-77
2023/07/11 04:33:16;;;;;;;1.63;1.20;;;;;;;17.69;100.00;102424.81;4927956;29;20203;-76
2023/07/11 04:35:43;;;;;;;3.53;1.90;;;;;;;17.49;100.00;102408.50;4923838;29;20198;-76
2023/07/11 04:38:09;;;;;;;2.30;1.70;;;;;;;17.42;100.00;102377.84;4926467;29;20625;-77
2023/07/11 04:40:34;;;;;;;3.20;1.70;;;;;;;18.02;100.00;102481.84;4928218;29;20848;-76
2023/07/11 04:43:00;;;;;;;5.63;1.87;;;;;;;18.20;100.00;102490.22;4928155;29;20243;-75
2023/07/11 04:45:26;;;;;;;4.40;1.60;;;;;;;17.68;100.00;102396.84;4923152;29;20279;-76
2023/07/11 04:47:51;;;;;;;2.87;1.83;;;;;;;18.14;100.00;102480.19;4924444;29;20184;-76
2023/07/11 04:50:17;;;;;;;2.50;1.40;;;;;;;18.16;100.00;102466.38;4918641;29;20759;-76
2023/07/11 04:52:44;;;;;;;5.20;1.87;;;;;;;17.69;100.00;102384.94;4929378;29;20223;-76
2023/07/11 04:55:10;;;;;;;2.70;1.20;;;;;;;18.36;100.00;102461.78;4925406;29;20195;-76
2023/07/11 04:57:35;;;;;;;3.10;1.20;;;;;;;17.27;100.00;102292.09;4926104;29;20462;-76
2023/07/11 05:00:01;;;;;;;2.70;1.40;;;;;;;18.17;100.00;102443.63;4927938;29;20447;-76
2023/07/11 05:02:27;;;;;;;2.87;1.30;;;;;;;17.88;100.00;102379.72;4923998;29;20195;-76
2023/07/11 05:04:52;;;;;;;4.00;1.90;;;;;;;17.78;100.00;102367.41;4923438;29;20505;-76
2023/07/11 05:07:18;;;;;;;4.07;1.53;;;;;;;18.08;100.00;102399.56;4926829;29;20274;-74
2023/07/11 05:09:43;;;;;;;5.00;1.90;;;;;;;17.70;100.00;102312.50;4923367;29;20211;-74
2023/07/11 05:12:10;;;;;;;3.33;1.60;;;;;;;18.51;100.00;102448.81;4926621;29;20194;-74
2023/07/11 05:14:36;;;;;;;5.87;2.27;;;;;;;18.34;100.00;102422.28;4920836;29;20867;-74
2023/07/11 05:17:02;;;;;;;3.87;1.90;;;;;;;18.32;100.00;102418.97;4918865;29;20446;-74
2023/07/11 05:19:27;;;;;;;3.00;1.47;;;;;;;18.66;100.00;102425.94;4927384;29;20911;-74
2023/07/11 05:21:53;;;;;;;3.00;1.50;;;;;;;17.94;100.00;102325.44;4931163;29;20191;-74
2023/07/11 05:24:18;;;;;;;3.87;1.87;;;;;;;18.38;100.00;102409.97;4925848;29;20299;-73
2023/07/11 05:26:44;;;;;;;1.90;1.67;;;;;;;18.01;100.00;102328.16;4926749;29;20237;-73
2023/07/11 05:29:09;;;;;;;3.37;1.83;;;;;;;18.48;100.00;102399.47;4922533;29;20221;-74
2023/07/11 05:31:34;;;;;;;3.20;1.63;;;;;;;18.65;100.00;102408.81;4934046;29;20207;-74
2023/07/11 05:34:00;;;;;;;3.10;1.40;;;;;;;18.65;100.00;102416.97;4918473;29;20251;-75
2023/07/11 05:38:53;;;;;;;2.70;1.40;;;;;;;18.06;100.00;102309.34;4928605;29;20199;-74
2023/07/11 05:41:20;;;;;;;4.07;1.90;;;;;;;18.65;100.00;102373.47;4928476;29;20455;-76
2023/07/11 05:43:46;;;;;;;5.40;1.93;;;;;;;18.89;100.00;102430.91;4922840;29;20228;-76
2023/07/11 05:46:11;;;;;;;6.23;2.23;;;;;;;18.81;100.00;102434.72;4921088;29;20977;-75
2023/07/11 05:48:37;;;;;;;3.60;1.73;;;;;;;18.28;100.00;102329.75;4922891;29;20470;-72
2023/07/11 05:51:09;;;;;;;4.70;1.60;;;;;;;18.57;100.00;102327.53;4927363;29;20270;-72
2023/07/11 05:53:35;;;;;;;2.73;1.60;;;;;;;19.26;100.00;102403.97;4937283;28;20231;-73
2023/07/11 05:56:00;;;;;;;5.60;2.40;;;;;;;18.51;100.00;102337.41;4921337;29;20447;-73
2023/07/11 05:58:28;;;;;;;3.37;2.00;;;;;;;19.42;100.00;102466.03;4926876;29;20828;-74
2023/07/11 06:00:54;;;;;;;5.43;2.20;;;;;;;19.18;100.00;102408.63;4924939;29;20198;-75
2023/07/11 06:03:22;;;;;;;4.10;1.77;;;;;;;19.59;100.00;102441.84;4917440;29;20463;-73
2023/07/11 06:05:48;;;;;;;4.07;1.73;;;;;;;19.60;100.00;102448.94;4926827;29;20456;-73
2023/07/11 06:08:13;;;;;;;4.77;1.90;;;;;;;19.66;100.00;102450.00;4927163;29;20814;-73
2023/07/11 06:10:39;;;;;;;4.30;2.73;;;;;;;18.90;100.00;102319.25;4924163;29;20869;-73
2023/07/11 06:13:04;;;;;;;5.13;1.70;;;;;;;19.76;100.00;102448.47;4927827;29;20307;-72
2023/07/11 06:15:30;;;;;;;8.83;2.33;;;;;;;19.86;100.00;102464.28;4925760;29;20239;-73
2023/07/11 06:17:56;;;;;;;2.27;1.53;;;;;;;19.59;100.00;102390.97;4925523;29;20232;-74
2023/07/11 06:20:22;;;;;;;2.83;1.60;;;;;;;20.00;100.00;102449.50;4925573;29;20187;-73
2023/07/11 06:22:48;;;;;;;4.70;2.03;;;;;;;19.97;100.00;102457.31;4928051;29;20223;-75
2023/07/11 06:25:13;;;;;;;4.97;2.03;;;;;;;20.01;100.00;102472.13;4924213;29;20506;-75
2023/07/11 06:27:39;;;;;;;4.00;1.80;;;;;;;19.36;100.00;102355.34;4926546;29;20227;-74
2023/07/11 06:30:05;;;;;;;8.77;1.93;;;;;;;20.14;100.00;102473.91;4927921;29;20204;-74
2023/07/11 06:32:30;;;;;;;4.03;1.53;;;;;;;19.72;100.00;102397.38;4927585;29;20302;-74
2023/07/11 06:34:55;;;;;;;3.00;1.50;;;;;;;20.32;100.00;102468.50;4925192;29;20455;-73
2023/07/11 06:37:21;;;;;;;4.43;1.80;;;;;;;20.49;100.00;102498.75;4925254;29;20203;-76
2023/07/11 06:39:46;;;;;;;3.53;1.50;;;;;;;20.30;100.00;102452.38;4917598;29;20267;-75
2023/07/11 06:42:12;;;;;;;3.00;1.50;;;;;;;20.44;100.00;102436.72;4929845;29;20649;-74
2023/07/11 06:44:37;;;;;;;3.60;1.53;;;;;;;20.84;100.00;102479.94;4929728;29;20187;-75
2023/07/11 06:47:03;;;;;;;3.07;1.60;;;;;;;20.90;100.00;102487.19;4928647;29;20258;-73
2023/07/11 06:49:28;;;;;;;2.70;1.73;;;;;;;20.95;100.00;102465.53;4929633;29;20270;-84
2023/07/11 06:51:54;;;;;;;3.00;1.70;;;;;;;21.16;100.00;102466.09;4924522;29;20184;-75
2023/07/11 06:54:19;;;;;;;2.80;1.40;;;;;;;21.11;100.00;102442.22;4929842;29;20636;-79
2023/07/11 06:56:45;;;;;;;2.33;1.50;;;;;;;20.34;100.00;102308.34;4922368;29;20215;-80
2023/07/11 06:59:19;;;;;;;4.10;2.43;;;;;;;21.42;100.00;102489.50;4922983;29;20195;-83
2023/07/11 07:01:45;;;;;;;6.37;2.10;;;;;;;21.46;100.00;102477.06;4925763;29;20406;-82
2023/07/11 07:04:11;;;;;;;3.30;1.40;;;;;;;21.53;100.00;102450.50;4943626;28;21047;-78
2023/07/11 07:06:37;;;;;;;3.50;1.73;;;;;;;21.47;100.00;102399.56;4918882;29;20514;-79
2023/07/11 07:09:03;;;;;;;5.70;1.90;;;;;;;21.69;100.00;102396.28;4918729;29;20205;-77
2023/07/11 07:11:28;;;;;;;4.00;1.80;;;;;;;21.53;100.00;102371.31;4921438;29;20230;-76
2023/07/11 07:13:54;;;;;;;3.87;1.67;;;;;;;21.79;100.00;102361.03;4924300;29;20829;-80
2023/07/11 07:16:19;;;;;;;5.10;2.10;;;;;;;21.88;100.00;102362.34;4917920;29;20188;-79
2023/07/11 07:18:45;;;;;;;7.50;2.17;;;;;;;21.87;100.00;102328.72;4926020;29;20283;-81
2023/07/11 07:21:10;;;;;;;7.00;1.90;;;;;;;21.98;100.00;102316.09;4923574;29;20638;-80
2023/07/11 07:23:36;;;;;;;4.10;1.90;;;;;;;22.04;100.00;102289.72;4920480;29;20216;-79
2023/07/11 07:26:03;;;;;;;4.57;2.10;;;;;;;21.86;100.00;102268.84;4917191;29;20862;-76
2023/07/11 07:28:30;;;;;;;6.10;2.37;;;;;;;21.04;100.00;102138.72;4925456;29;20203;-77
2023/07/11 07:30:57;;;;;;;4.13;1.90;;;;;;;21.80;100.00;102226.94;4923453;29;20886;-75
2023/07/11 07:33:24;;;;;;;4.37;2.07;;;;;;;22.04;100.00;102274.19;4916598;29;20471;-76
2023/07/11 07:35:57;;;;;;;5.30;2.00;;;;;;;21.98;100.00;102252.44;4918284;29;20458;-81
2023/07/11 07:38:27;;;;;;;3.93;1.77;;;;;;;22.13;100.00;102211.81;4923382;29;20451;-76
2023/07/11 07:40:53;;;;;;;6.43;2.23;;;;;;;22.21;100.00;102218.78;4926381;29;20547;-83
2023/07/11 07:43:19;;;;;;;4.83;1.70;;;;;;;21.92;100.00;102155.06;4924105;29;20586;-80
2023/07/11 07:45:52;;;;;;;3.07;1.93;;;;;;;22.29;100.00;102202.84;4926773;29;20534;-81
2023/07/11 07:48:18;;;;;;;4.73;2.30;;;;;;;21.77;100.00;102093.63;4923334;29;20247;-79
2023/07/11 07:50:44;;;;;;;7.67;2.03;;;;;;;22.39;100.00;102168.56;4929978;29;20495;-80
2023/07/11 07:53:14;;;;;;;4.10;1.63;;;;;;;22.55;100.00;102176.78;4924244;29;20771;-76
2023/07/11 07:55:40;;;;;;;4.27;2.00;;;;;;;22.33;100.00;102124.75;4924226;29;20506;-80
2023/07/11 07:58:06;;;;;;;6.63;2.10;;;;;;;22.28;100.00;102132.88;4922729;29;20848;-82
2023/07/11 08:00:32;;;;;;;4.00;2.07;;;;;;;22.19;100.00;102109.75;4926084;29;20184;-80
2023/07/11 08:02:57;;;;;;;3.00;1.67;;;;;;;22.49;100.00;102164.13;4920282;29;20545;-77
2023/07/11 08:05:23;;;;;;;4.13;1.80;;;;;;;22.56;100.00;102155.75;4927214;29;20191;-79
2023/07/11 08:07:48;;;;;;;5.33;2.20;;;;;;;22.57;100.00;102160.16;4920129;29;20835;-78
2023/07/11 08:10:15;;;;;;;4.50;2.10;;;;;;;22.61;100.00;102155.84;4922542;29;20640;-80
2023/07/11 08:12:41;;;;;;;2.53;1.60;;;;;;;21.83;100.00;102018.06;4926112;29;20720;-78
2023/07/11 08:15:08;;;;;;;3.40;1.90;;;;;;;22.83;100.00;102090.28;4925386;29;20455;-80
2023/07/11 08:17:34;;;;;;;4.07;1.70;;;;;;;22.85;100.00;102100.97;4941470;28;20563;-79
2023/07/11 08:19:59;;;;;;;5.90;2.27;;;;;;;22.56;100.00;102046.38;4918489;29;20447;-82
2023/07/11 08:22:25;;;;;;;6.30;2.70;;;;;;;22.71;100.00;102019.28;4925728;29;20230;-79
2023/07/11 08:24:50;;;;;;;7.87;2.10;;;;;;;22.92;100.00;102060.59;4939996;29;20586;-82
2023/07/11 08:27:16;;;;;;;3.00;1.67;;;;;;;22.72;100.00;102001.78;4925234;29;20203;-77
2023/07/11 08:29:45;;;;;;;4.20;2.13;;;;;;;23.01;100.00;102007.94;4927455;29;20275;-80
2023/07/11 08:32:14;;;;;;;5.47;2.07;;;;;;;22.89;100.00;101974.38;4919436;29;20708;-78
2023/07/11 08:34:40;;;;;;;4.07;2.30;;;;;;;23.12;100.00;101940.50;4927428;29;20447;-84
2023/07/11 08:37:06;;;;;;;5.27;2.07;;;;;;;22.95;100.00;101910.47;4917025;29;20459;-76
2023/07/11 08:39:31;;;;;;;2.10;1.50;;;;;;;23.49;100.00;101911.56;4947353;28;20443;-81
2023/07/11 08:42:12;;;;;;;4.47;2.33;;;;;;;22.48;100.00;101722.31;4923661;29;20441;-84
2023/07/11 08:44:48;;;;;;;4.10;1.80;;;;;;;22.79;100.00;101799.19;4924937;29;20560;-82
2023/07/11 08:47:13;;;;;;;5.87;2.23;;;;;;;23.32;100.00;101860.50;4924196;29;20449;-80
2023/07/11 08:49:50;;;;;;;3.53;2.00;;;;;;;22.74;100.00;101749.94;4924105;29;20475;-80
2023/07/11 08:52:18;;;;;;;5.53;2.37;;;;;;;23.33;100.00;101881.31;4922359;29;20218;-78
2023/07/11 08:55:03;;;;;;;4.50;2.23;;;;;;;23.27;100.00;101826.78;4925236;29;20546;-84
2023/07/11 08:57:34;;;;;;;4.10;1.57;;;;;;;23.37;100.00;101857.78;4924127;29;20436;-78
2023/07/11 09:00:10;;;;;;;4.53;2.10;;;;;;;23.55;100.00;101840.19;4924168;29;20454;-78
2023/07/11 09:02:55;;;;;;;4.63;2.00;;;;;;;23.60;100.00;101771.72;4922054;29;20482;-85
2023/07/11 09:05:26;;;;;;;4.87;1.97;;;;;;;23.46;100.00;101806.97;4922637;29;20476;-81
2023/07/11 09:07:53;;;;;;;7.33;2.17;;;;;;;23.36;100.00;101756.78;4924768;29;20546;-78
2023/07/11 09:10:30;;;;;;;4.93;2.00;;;;;;;23.53;100.00;101724.59;4919708;29;20569;-80
2023/07/11 09:13:25;;;;;;;5.60;2.10;;;;;;;23.67;100.00;101709.34;4920860;29;21002;-80
2023/07/11 09:15:53;;;;;;;3.97;2.00;;;;;;;23.82;100.00;101694.13;4924772;29;20447;-80
2023/07/11 09:18:41;;;;;;;4.63;1.93;;;;;;;23.78;100.00;101682.88;4919398;29;20539;-78
2023/07/11 09:21:12;;;;;;;4.33;2.33;;;;;;;23.74;100.00;101675.44;4924694;29;20455;-81
2023/07/11 09:24:15;;;;;;;4.27;1.83;;;;;;;23.61;100.00;101611.81;4919478;29;20482;-79
2023/07/11 09:26:50;;;;;;;6.87;2.13;;;;;;;23.61;100.00;101613.75;4920029;29;20794;-81
2023/07/11 09:29:18;;;;;;;4.70;1.87;;;;;;;23.84;100.00;101637.16;4922125;29;20498;-82
2023/07/11 09:31:50;;;;;;;4.20;2.33;;;;;;;24.35;100.00;101588.72;4920922;29;20458;-82
2023/07/11 09:34:23;;;;;;;5.20;1.97;;;;;;;24.35;100.00;101531.16;4923199;29;20544;-78
2023/07/11 09:36:49;;;;;;;5.00;1.70;;;;;;;24.28;100.00;101400.97;4926212;29;20526;-87
2023/07/11 09:39:24;;;;;;;3.23;1.60;;;;;;;24.86;100.00;101431.53;4925759;29;20975;-81
2023/07/11 09:42:04;;;;;;;5.27;1.63;;;;;;;24.63;100.00;101372.66;4926984;29;20463;-82
2023/07/11 09:44:30;;;;;;;6.60;2.00;;;;;;;25.20;100.00;101384.22;4929060;29;20466;-82
2023/07/11 09:46:56;;;;;;;2.30;1.60;;;;;;;24.55;100.00;101239.66;4928972;29;20597;-80
2023/07/11 09:49:31;;;;;;;3.17;1.80;;;;;;;25.43;100.00;101349.72;4921950;29;20211;-78
2023/07/11 09:51:59;;;;;;;6.00;1.70;;;;;;;24.91;100.00;101231.22;4920893;29;20443;-78
2023/07/11 09:54:42;;;;;;;6.27;1.97;;;;;;;25.75;100.00;101338.19;4928115;29;20451;-84
2023/07/11 09:57:11;;;;;;;4.57;2.27;;;;;;;25.42;100.00;101317.88;4929502;29;20526;-85
2023/07/11 09:59:38;;;;;;;5.43;1.83;;;;;;;25.81;100.00;101315.06;4924980;29;20440;-78
2023/07/11 10:02:04;;;;;;;4.67;1.83;;;;;;;25.51;100.00;101252.16;4919333;29;20542;-78
2023/07/11 10:04:31;;;;;;;3.10;1.57;;;;;;;25.68;100.00;101296.50;4942696;28;20928;-78
2023/07/11 10:06:59;;;;;;;3.57;1.80;;;;;;;25.66;100.00;101291.31;4925561;29;20447;-81
2023/07/11 10:09:32;;;;;;;4.93;1.90;;;;;;;25.75;100.00;101299.72;4927625;29;20451;-76
2023/07/11 10:11:59;;;;;;;4.83;1.70;;;;;;;25.95;100.00;101286.91;4924095;29;20483;-78
2023/07/11 10:14:29;;;;;;;3.03;1.73;;;;;;;25.74;100.00;101284.34;4926466;29;20456;-76
2023/07/11 10:16:56;;;;;;;8.20;1.97;;;;;;;25.86;100.00;101282.06;4926583;29;21007;-75
2023/07/11 10:19:22;;;;;;;6.80;2.00;;;;;;;25.80;100.00;101298.84;4927954;29;21023;-75
2023/07/11 10:21:49;;;;;;;6.70;1.83;;;;;;;25.07;100.00;101250.31;4924852;29;20483;-81
2023/07/11 10:24:18;;;;;;;5.20;2.30;;;;;;;25.10;100.00;101267.00;4926816;29;20220;-77
2023/07/11 10:26:47;;;;;;;3.90;1.90;;;;;;;25.61;100.00;101279.53;4924940;29;20951;-80
2023/07/11 10:29:17;;;;;;;5.23;2.30;;;;;;;25.66;100.00;101283.06;4954011;28;20515;-81
2023/07/11 10:31:54;;;;;;;7.27;2.30;;;;;;;25.55;100.00;101280.69;4930652;29;20619;-81
2023/07/11 10:34:36;;;;;;;3.60;1.97;;;;;;;25.59;100.00;101276.25;4924129;29;20446;-78
2023/07/11 10:37:12;;;;;;;2.70;1.43;;;;;;;25.22;100.00;101217.28;4924415;29;20936;-77
2023/07/11 10:39:47;;;;;;;5.90;1.73;;;;;;;25.85;100.00;101261.19;4926666;29;20427;-80
2023/07/11 10:42:34;;;;;;;2.57;1.67;;;;;;;25.92;100.00;101260.81;4927142;29;20918;-80
2023/07/11 10:45:23;;;;;;;4.07;2.03;;;;;;;25.66;100.00;101266.56;4923315;29;20558;-78
2023/07/11 10:48:04;;;;;;;4.43;2.20;;;;;;;25.68;100.00;101264.34;4929602;29;20424;-80
2023/07/11 10:50:36;;;;;;;2.87;2.20;;;;;;;25.50;100.00;101226.63;4940778;29;20940;-79
2023/07/11 10:53:11;;;;;;;2.90;1.50;;;;;;;25.69;100.00;101257.75;4926351;29;20506;-82
2023/07/11 10:55:46;;;;;;;5.07;1.63;;;;;;;25.57;100.00;101218.03;4924769;29;21760;-88
2023/07/11 10:58:15;;;;;;;5.70;2.40;;;;;;;25.71;100.00;101240.97;4924150;29;20438;-83
2023/07/11 11:00:52;;;;;;;4.77;1.80;;;;;;;25.61;100.00;101192.47;4926191;29;20605;-77
2023/07/11 11:03:32;;;;;;;2.57;1.83;;;;;;;26.06;100.00;101227.97;4924966;29;20475;-81
2023/07/11 11:06:05;;;;;;;4.87;2.03;;;;;;;26.00;100.00;101212.66;4923809;29;20744;-85
2023/07/11 11:08:41;;;;;;;3.33;1.67;;;;;;;26.02;100.00;101213.19;4922660;29;20479;-76
2023/07/11 11:11:31;;;;;;;7.30;1.77;;;;;;;26.24;100.00;101209.88;4934281;29;20854;-79
2023/07/11 11:14:34;;;;;;;3.43;1.70;;;;;;;26.27;100.00;101218.34;4920385;29;21007;-87
2023/07/11 11:17:19;;;;;;;4.27;1.73;;;;;;;26.27;100.00;101220.28;4919334;29;20450;-82
2023/07/11 11:19:56;;;;;;;3.40;2.03;;;;;;;26.46;100.00;101234.06;4923510;29;20470;-83
2023/07/11 11:22:37;;;;;;;5.60;1.93;;;;;;;26.38;100.00;101225.38;4925725;29;20475;-80